x

West Orca Bay - 8nm Nw Of Hinchinbrook Is , Ak (46060) Wave Buoy

3:50pm - Fri 29th Aug 2014 All times are AKDT. -8 hours from GMT.

  • Sig Wave height 1.6ft
  • Swell Direction
  • Peak Period 7s
  • Average Period 4s
  • Wind
    11mph, 13mph gusts
  • Sea Temp 55°f
  • Air Temp 52°f
  • Sea Pressure 1000.7mb
  • West Orca Bay - 8nm Nw Of Hinchinbrook  Is , Ak
  • West Orca Bay - 8nm Nw Of Hinchinbrook  Is , Ak

More Historic Weather Station data

Upgrade to MSW Pro to gain access to the past 30 days of data for over 8000 Wavebouys and Weather Stations around the globe.

Join Pro

Comparision Forecast

View Surf forecast
   
Fri 08/29 3:50pm 1.6ft 7s 4s 11 13 mph 1000.7mb 55f 52f
2:50pm 1.6ft 7s 4s 11 13 mph 1000.8mb 55f 52f
1:50pm 1.6ft 6s 5s 11 13 mph 1000.8mb 55f 52f
12:50pm 1.6ft 7s 4s 13 16 mph 1000.7mb 55f 52f
11:50am 1.6ft 9s 4s 11 13 mph 1000.8mb 55f 52f
10:50am 1.6ft 7s 5s 11 13 mph 1001mb 55f 52f
9:50am 1.6ft 6s 5s 11 13 mph 1001mb 55f 52f
8:50am 2ft 7s 5s 11 13 mph 1001.1mb 56f 52f
7:50am 1.6ft 7s 5s 9 11 mph 1001.2mb 56f 53f
6:50am 1.6ft 8s 5s 7 9 mph 1001.4mb 56f 53f
5:50am 1.6ft 8s 5s 9 11 mph 1001.5mb 56f 53f
4:50am 1.6ft 10s 4s 9 13 mph 1001.8mb 56f 53f
3:50am 2.5ft 10s 5s 11 13 mph 1002mb 56f 53f
2:50am 2.5ft 7s 5s 13 16 mph 1002.6mb 56f 53f
1:50am 3.5ft 8s 6s 13
mph
1003mb 56f 54f
12:50am 2.5ft 8s 5s 11 13 mph 1003.5mb 56f 54f
Thu 08/28 11:50pm 2.5ft 8s 5s 13 16 mph 1003.9mb 56f 54f
10:50pm 2.5ft 9s 5s 13 16 mph 1004.5mb 56f 54f
9:50pm 2ft 9s 5s 11 13 mph 1004.8mb 56f 53f
8:50pm 1.6ft 8s 5s 9 11 mph 1004.9mb 56f 54f
7:50pm 1.6ft 8s 5s 9 11 mph 1005.3mb 56f 53f
6:50pm 1.6ft 9s 5s 9 11 mph 1005.6mb 56f 54f
5:50pm 2ft 8s 4s 9 11 mph 1005.6mb 56f 54f
4:50pm 2ft 8s 4s 11 13 mph 1005.8mb 56f 54f
3:50pm 2.5ft 8s 4s 13 16 mph 1006.1mb 56f 55f
2:50pm 2.5ft 8s 4s 11 13 mph 1006.6mb 56f 54f
1:50pm 3ft 7s 5s 11 13 mph 1006.9mb 56f 54f
12:50pm 3ft 7s 5s 13 18 mph 1007.2mb 56f 55f
11:50am 3ft 8s 4s 16 18 mph 1007.4mb 56f 54f
10:50am 2.5ft 7s 4s 18 20 mph 1007.7mb 56f 53f
9:50am 2.5ft 3s 4s 16 20 mph 1008mb 56f 53f
8:50am 2.5ft 3s 4s 18 22 mph 1007.9mb 56f 54f
7:50am 2.5ft 4s 4s 18 20 mph 1007.8mb 56f 53f
6:50am 3ft 4s 4s 20 25 mph 1007.8mb 56f 54f
5:50am 3ft 4s 4s 18 22 mph 1008mb 56f 53f
4:50am 3.5ft 4s 4s 20 27 mph 1008.1mb 56f 54f
3:50am 3.5ft 5s 4s 22 27 mph 1008.4mb 56f 55f
2:50am 3.5ft 4s 4s 25 31 mph 1008.9mb 56f 55f
1:50am 3.5ft 4s 4s 25 29 mph 1009.5mb 56f 56f
12:50am 3ft 4s 4s 25 31 mph 1009.7mb 56f 56f
Wed 08/27 11:50pm 3.5ft 4s 4s 25 29 mph 1010.5mb 56f 56f
10:50pm 3.5ft 4s 4s 25 29 mph 1011mb 56f 56f
9:50pm 3ft 4s 4s 22 29 mph 1011.6mb 56f 56f
8:50pm 3.5ft 4s 4s 25 29 mph 1011.8mb 56f 55f
7:50pm 3.5ft 4s 4s 25 29 mph 1012mb 56f 55f
6:50pm 3ft 4s 4s 25 31 mph 1012.4mb 56f 55f
5:50pm 2.5ft 4s 4s 25 29 mph 1013mb 56f 55f
4:50pm 3ft 4s 4s 22 29 mph 1013.5mb 56f 55f
3:50pm 3ft 4s 4s 22 27 mph 1014mb 57f 55f
2:50pm 2.5ft 4s 4s 20 25 mph 1014.4mb 56f 55f
1:50pm 2.5ft 4s 4s 20 25 mph 1014.7mb 57f 55f
12:50pm 2ft 4s 3s 20 25 mph 1015.1mb 57f 55f
11:50am 2ft 3s 4s 20 22 mph 1015.3mb 56f 54f
10:50am 1.6ft 3s 4s 18 20 mph 1015.7mb 56f 54f
9:50am 1.6ft 3s 4s 13 16 mph 1015.8mb 56f 54f
8:50am 1.3ft 11s 4s 16 18 mph 1015.5mb 56f 54f
7:50am 1.3ft 11s 4s 16
mph
1015.6mb 56f 54f
6:50am 1.3ft 8s 4s 4
mph
1015.7mb 56f 54f
5:50am 1.3ft 8s 5s 11 13 mph 1015.7mb 56f 54f
4:50am 1.3ft 8s 6s 9 11 mph 1015.6mb 56f 54f
3:50am 1.3ft 8s 7s 9 11 mph 1015.5mb 55f 55f
2:50am 1.3ft 8s 7s 4
mph
1015.6mb 57f 55f
1:50am 1.6ft 9s 7s 4
mph
1015.5mb 57f 56f
12:50am 1.3ft 8s 7s 7
mph
1015.4mb 57f 56f
Tue 08/26 11:50pm 1.3ft 8s 6s 4
mph
1015.1mb 57f 56f
10:50pm 1ft 15s 6s  -  mph 1015mb 58f 56f
9:50pm 1.3ft 9s 6s 2
mph
1014.8mb 58f 56f
8:50pm 1ft 9s 6s 2
mph
1014.6mb 58f 56f
7:50pm 1ft 8s 7s  -  2 mph 1014.7mb 59f 57f
6:50pm 1ft 9s 7s 2 4 mph 1014.4mb 59f 57f
5:50pm 1.3ft 9s 7s 4 7 mph 1014.1mb 59f 56f
4:50pm 1.3ft 8s 7s 4
mph
1014mb 58f 56f
3:50pm 1.6ft 9s 7s 7
mph
1013.8mb 58f 55f
2:50pm 1.6ft 8s 7s 7
mph
1013.5mb 58f 55f
1:50pm 1.6ft 9s 7s 2 4 mph 1013.4mb 58f 55f
12:50pm 1.3ft 9s 6s 4 7 mph 1013.3mb 57f 55f
11:50am 1.3ft 8s 6s 4
mph
1012.9mb 57f 55f
10:50am 1.3ft 8s 6s 2
mph
1012.5mb 56f 56f
9:50am 1.3ft 9s 7s 2
mph
1012mb 56f 55f
8:50am 1ft 9s 7s 4
mph
1011.7mb 56f 55f
7:50am 1.3ft 9s 7s 4 7 mph 1011.2mb 56f 54f
6:50am 1.6ft 10s 6s 2 4 mph 1010.8mb 56f 54f
5:50am 1.3ft 9s 5s 9 11 mph 1010.5mb 56f 53f
4:50am 1.6ft 9s 4s 13 16 mph 1010.1mb 56f 54f
3:50am 1.6ft 8s 4s 13 16 mph 1009.5mb 56f 54f
2:50am 1.6ft 9s 4s 16 18 mph 1009mb 56f 54f
1:50am 1.6ft 8s 4s 11 16 mph 1008.8mb 56f 54f
12:50am 1.6ft 9s 4s 11
mph
1008.8mb 56f 54f